2002 FENGSHEN (2002195N11172)


On this page: IBTrACS data - Map and Plots - Positions - Intensities - Original source data

Summary

Start Jul 13
End Jul 28
Basin WP
LMI 145 kt
Sources jtwc_wp
tokyo
cma
hko
In WMO? Yes
Previous storm 2002 CRISTINA (EP)
Previous in basin 2002 NAKRI (WP)
Concurrent storms 2002 HALONG (WP)
2002 CRISTINA (EP)
2002 FENGSHEN (WP)
2002 ARTHUR (NA)
2002 KALMAEGI (EP)
2002 TD0720 (WP)
2002 FUNG-WONG (WP)
2002 DOUGLAS (EP)
2002 ELIDA (EP)
Next in basin 2002 KALMAEGI (EP)
Next storm 2002 ARTHUR (NA)

top of page IBTrACS Data: File Access

top of page HURSAT Data: File Access

Image of storm

top of page Plots:

Map of storm track will not appear if FTP is down
Time series of cyclone Maximum Sustained Wind will not appear if FTP is down
Time series of cyclone Minimum Central Pressure will not appear if FTP is down

top of page Track Data:Position

jtwc_wp tokyo cma hko
Date Lat Lon Lat Lon Lat Lon Lat Lon
2002-07-13 18:00:00 10.9 171.8
2002-07-14 00:00:00 11.2 171.0 11.0 170.9 11.0 170.9
2002-07-14 06:00:00 11.7 170.7 11.6 170.7 11.5 170.7 11.4 170.6
2002-07-14 12:00:00 12.1 170.3 12.0 170.4 11.9 170.4 11.9 170.3
2002-07-14 18:00:00 12.5 170.2 12.6 170.2 12.4 170.2 12.5 170.2
2002-07-15 00:00:00 13.0 170.3 13.1 170.3 13.1 170.3 13.1 170.3
2002-07-15 06:00:00 13.5 170.5 13.6 170.4 13.6 170.4 13.5 170.5
2002-07-15 12:00:00 13.9 170.5 13.9 170.5 13.9 170.5 13.9 170.5
2002-07-15 18:00:00 14.2 170.3 14.3 170.3 14.3 170.3 14.3 170.4
2002-07-16 00:00:00 14.4 169.9 14.5 169.9 14.5 169.9 14.5 170.0
2002-07-16 06:00:00 14.4 169.4 14.6 169.5 14.5 169.5 14.6 169.5
2002-07-16 12:00:00 14.4 168.9 14.5 168.9 14.5 169.0 14.6 169.0
2002-07-16 18:00:00 14.5 168.4 14.5 168.6 14.5 168.5 14.6 168.5
2002-07-17 00:00:00 14.5 167.7 14.6 167.9 14.6 167.9 14.6 167.9
2002-07-17 06:00:00 14.6 167.2 14.6 167.3 14.6 167.3 14.6 167.3
2002-07-17 12:00:00 14.6 166.4 14.7 166.4 14.7 166.4 14.6 166.4
2002-07-17 18:00:00 14.6 165.5 14.7 165.5 14.7 165.5 14.6 165.5
2002-07-18 00:00:00 14.6 164.6 14.6 164.6 14.6 164.6 14.6 164.6
2002-07-18 06:00:00 14.6 163.8 14.6 163.8 14.6 163.8 14.6 163.8
2002-07-18 12:00:00 14.8 163.0 14.8 163.0 14.8 163.0 14.7 163.0
2002-07-18 18:00:00 14.9 162.1 15.0 162.1 15.0 162.1 14.9 162.1
2002-07-19 00:00:00 15.1 161.3 15.1 161.3 15.1 161.3 15.1 161.3
2002-07-19 06:00:00 15.3 160.5 15.3 160.5 15.3 160.5 15.3 160.5
2002-07-19 12:00:00 15.5 159.8 15.5 159.8 15.5 159.7 15.6 159.8
2002-07-19 18:00:00 15.8 159.1 15.8 159.1 15.8 159.1 15.8 159.1
jtwc_wp tokyo cma hko
2002-07-20 00:00:00 16.0 158.5 16.0 158.5 16.0 158.6 16.0 158.6
2002-07-20 06:00:00 16.5 158.1 16.6 158.1 16.6 158.2 16.5 158.1
2002-07-20 12:00:00 17.2 157.6 17.2 157.6 17.2 157.6 17.2 157.6
2002-07-20 18:00:00 18.0 156.9 17.8 157.0 17.8 157.0 18.0 157.0
2002-07-21 00:00:00 18.9 156.1 19.0 156.2 19.0 156.2 19.0 156.2
2002-07-21 06:00:00 19.7 155.3 19.8 155.3 19.8 155.3 19.8 155.3
2002-07-21 12:00:00 20.5 154.3 20.5 154.3 20.5 154.3 20.5 154.3
2002-07-21 18:00:00 21.3 153.4 21.4 153.4 21.4 153.4 21.2 153.4
2002-07-22 00:00:00 22.2 152.2 22.2 152.2 22.2 152.3 22.2 152.3
2002-07-22 06:00:00 23.3 151.2 23.3 151.2 23.3 151.2 23.2 151.2
2002-07-22 12:00:00 24.2 150.0 24.2 150.0 24.2 150.0 24.2 150.0
2002-07-22 18:00:00 25.0 148.8 25.0 148.7 25.0 148.8 25.0 148.8
2002-07-23 00:00:00 25.8 147.5 25.9 147.5 25.9 147.5 25.8 147.5
2002-07-23 06:00:00 26.6 146.2 26.7 146.1 26.7 146.2 26.7 146.1
2002-07-23 12:00:00 27.4 144.7 27.5 144.7 27.5 144.7 27.5 144.7
2002-07-23 18:00:00 28.1 143.0 27.9 143.0 28.0 143.0 28.0 143.0
2002-07-24 00:00:00 28.3 141.3 28.5 141.1 28.5 141.1 28.4 141.1
2002-07-24 06:00:00 28.4 139.6 28.7 139.1 28.7 139.1 28.6 139.3
2002-07-24 12:00:00 28.6 138.0 28.7 137.7 28.8 137.7 28.7 137.7
2002-07-24 18:00:00 29.0 136.1 29.0 136.1 29.0 136.1 28.9 136.0
2002-07-25 00:00:00 29.4 134.2 29.6 134.1 29.5 134.2 29.4 134.2
2002-07-25 06:00:00 30.0 132.4 30.2 132.2 30.1 132.4 30.1 132.4
2002-07-25 12:00:00 30.5 130.9 30.3 130.6 30.3 130.9 30.6 130.9
2002-07-25 18:00:00 31.1 129.3 30.9 129.3 31.0 129.7 31.0 129.4
jtwc_wp tokyo cma hko
2002-07-26 00:00:00 31.7 128.0 31.9 128.0 31.9 128.1 31.9 128.0
2002-07-26 06:00:00 32.4 126.8 32.2 126.8 32.5 126.9 32.5 126.9
2002-07-26 12:00:00 33.0 125.7 33.0 125.7 33.0 125.7 33.1 125.8
2002-07-26 18:00:00 33.6 124.5 33.5 124.5 33.8 124.4 33.7 124.6
2002-07-27 00:00:00 34.2 123.4 33.9 123.4 34.3 123.4 34.3 123.4
2002-07-27 06:00:00 34.9 122.3 34.7 122.2 34.8 122.2 34.8 122.3
2002-07-27 12:00:00 35.0 120.9 35.7 121.1 35.5 121.3
2002-07-27 18:00:00 35.5 120.2 36.0 120.0 36.0 120.2
2002-07-28 00:00:00 37.0 119.7 36.6 119.8 36.6 119.6
2002-07-28 06:00:00 37.6 119.2 38.0 119.3
2002-07-28 12:00:00 38.2 118.4 39.0 119.0

top of pageTrack Data:Intensity

jtwc_wp tokyo cma hko
Date Wind Pres Wind Pres Wind Pres Wind Pres
2002-07-13 18:00:00 1000.
2002-07-14 00:00:00 20. 1004. 35. 995. 30. 1000.
2002-07-14 06:00:00 25. 1002. 40. 990. 29. 998. 30. 1000.
2002-07-14 12:00:00 30. 1000. 50. 985. 39. 990. 35. 996.
2002-07-14 18:00:00 45. 991. 50. 985. 39. 990. 40. 992.
2002-07-15 00:00:00 80. 963. 55. 980. 49. 985. 55. 980.
2002-07-15 06:00:00 85. 958. 60. 975. 58. 980. 70. 965.
2002-07-15 12:00:00 90. 954. 65. 970. 68. 970. 75. 960.
2002-07-15 18:00:00 95. 949. 70. 965. 68. 965. 80. 955.
2002-07-16 00:00:00 105. 938. 75. 955. 78. 955. 85. 950.
2002-07-16 06:00:00 115. 927. 80. 950. 78. 950. 90. 945.
2002-07-16 12:00:00 115. 927. 85. 940. 87. 940. 95. 940.
2002-07-16 18:00:00 125. 916. 90. 935. 87. 935. 100. 935.
2002-07-17 00:00:00 125. 916. 90. 930. 87. 930. 100. 935.
2002-07-17 06:00:00 125. 916. 90. 930. 87. 930. 100. 935.
2002-07-17 12:00:00 125. 916. 90. 930. 87. 930. 100. 935.
2002-07-17 18:00:00 125. 916. 95. 930. 97. 930. 105. 930.
2002-07-18 00:00:00 130. 910. 95. 930. 97. 930. 105. 930.
2002-07-18 06:00:00 135. 904. 95. 930. 97. 930. 105. 930.
2002-07-18 12:00:00 135. 904. 95. 930. 97. 930. 105. 930.
2002-07-18 18:00:00 135. 904. 100. 925. 107. 925. 110. 925.
2002-07-19 00:00:00 140. 898. 100. 925. 107. 925. 110. 925.
2002-07-19 06:00:00 140. 898. 100. 925. 107. 925. 110. 925.
2002-07-19 12:00:00 140. 898. 100. 925. 107. 925. 110. 925.
2002-07-19 18:00:00 140. 898. 95. 930. 97. 930. 110. 925.
jtwc_wp tokyo cma hko
2002-07-20 00:00:00 140. 898. 95. 930. 97. 930. 110. 925.
2002-07-20 06:00:00 140. 898. 95. 930. 97. 930. 110. 925.
2002-07-20 12:00:00 135. 904. 95. 930. 97. 930. 110. 925.
2002-07-20 18:00:00 140. 898. 95. 930. 97. 930. 110. 925.
2002-07-21 00:00:00 140. 898. 95. 930. 97. 930. 110. 925.
2002-07-21 06:00:00 140. 898. 100. 920. 107. 925. 110. 925.
2002-07-21 12:00:00 145. 892. 100. 920. 107. 925. 110. 925.
2002-07-21 18:00:00 140. 898. 100. 920. 107. 925. 110. 925.
2002-07-22 00:00:00 140. 898. 100. 920. 107. 925. 110. 925.
2002-07-22 06:00:00 135. 904. 95. 925. 107. 925. 110. 925.
2002-07-22 12:00:00 130. 910. 95. 925. 107. 925. 110. 925.
2002-07-22 18:00:00 130. 910. 90. 930. 97. 935. 105. 930.
2002-07-23 00:00:00 120. 922. 85. 940. 87. 940. 95. 940.
2002-07-23 06:00:00 110. 933. 80. 945. 78. 950. 90. 945.
2002-07-23 12:00:00 95. 949. 80. 945. 78. 950. 85. 950.
2002-07-23 18:00:00 85. 958. 80. 945. 78. 950. 80. 955.
2002-07-24 00:00:00 80. 963. 75. 955. 68. 965. 75. 960.
2002-07-24 06:00:00 75. 967. 70. 960. 68. 970. 70. 965.
2002-07-24 12:00:00 70. 972. 65. 965. 64. 975. 70. 965.
2002-07-24 18:00:00 65. 976. 65. 965. 58. 975. 65. 970.
2002-07-25 00:00:00 65. 976. 60. 970. 58. 975. 65. 970.
2002-07-25 06:00:00 60. 980. 60. 970. 58. 975. 60. 975.
2002-07-25 12:00:00 55. 984. 55. 970. 54. 975. 60. 975.
2002-07-25 18:00:00 55. 984. 55. 975. 54. 975. 60. 975.
jtwc_wp tokyo cma hko
2002-07-26 00:00:00 50. 987. 55. 975. 54. 975. 55. 980.
2002-07-26 06:00:00 45. 991. 50. 980. 49. 980. 50. 985.
2002-07-26 12:00:00 45. 991. 45. 985. 45. 985. 45. 990.
2002-07-26 18:00:00 35. 997. 40. 990. 39. 990. 40. 992.
2002-07-27 00:00:00 30. 1000. 35. 996. 39. 990. 35. 996.
2002-07-27 06:00:00 25. 1002. 35. 998. 39. 990. 35. 996.
2002-07-27 12:00:00 1002. 35. 995. 35. 996.
2002-07-27 18:00:00 1004. 29. 1000. 30. 1000.
2002-07-28 00:00:00 1006. 29. 1002. 25. 1004.
2002-07-28 06:00:00 1006. 23. 1004.
2002-07-28 12:00:00 1006. 19. 1006.

top of page Links to source data

Source Source file Format
jtwc_wp bwp122002.txt ATCF
tokyo bst_all.txt:Line=51506:FENGSHEN:209 JMA text table
cma CH2002BST.txt:Storm=11:Fengshen CMA text table
hko tc-besttrack-data.txt:Line=29368:FENGSHEN HKO Text table